createdAt,value
2022-12-11T00:01:24.276Z,99.35
2022-12-11T00:05:26.235Z,99.45
2022-12-11T00:09:28.649Z,99.47
2022-12-11T00:13:30.577Z,99.45
2022-12-11T00:17:32.617Z,99.48
2022-12-11T00:21:34.898Z,99.53
2022-12-11T00:25:45.855Z,99.50
2022-12-11T00:29:47.786Z,99.53
2022-12-11T00:33:50.776Z,99.52
2022-12-11T00:37:53.462Z,99.56
2022-12-11T00:41:55.444Z,99.64
2022-12-11T00:45:57.799Z,99.57
2022-12-11T00:49:59.843Z,99.58
2022-12-11T00:54:03.207Z,99.46
2022-12-11T00:58:05.191Z,99.49
2022-12-11T01:02:07.133Z,99.38
2022-12-11T01:06:14.650Z,99.35
2022-12-11T01:10:26.301Z,99.50
2022-12-11T01:14:28.358Z,99.50
2022-12-11T01:18:30.297Z,99.46
2022-12-11T01:22:32.287Z,99.40
2022-12-11T01:26:34.298Z,99.30
2022-12-11T01:30:36.694Z,99.31
2022-12-11T01:34:38.810Z,99.42
2022-12-11T01:38:41.254Z,99.42
2022-12-11T01:42:43.631Z,99.47
2022-12-11T01:46:45.569Z,99.46
2022-12-11T01:50:54.102Z,99.38
2022-12-11T01:54:56.130Z,99.45
2022-12-11T01:59:06.008Z,99.45
2022-12-11T02:03:08.521Z,99.47
2022-12-11T02:07:10.432Z,99.24
2022-12-11T02:11:25.336Z,99.20
2022-12-11T02:15:30.226Z,99.24
2022-12-11T02:19:48.967Z,99.39
2022-12-11T02:23:56.858Z,99.50
2022-12-11T02:28:26.621Z,99.43
2022-12-11T02:32:35.950Z,99.38
2022-12-11T02:36:43.127Z,99.41
2022-12-11T02:40:49.242Z,99.29
2022-12-11T02:44:54.036Z,99.37
2022-12-11T02:48:57.079Z,99.29
2022-12-11T02:53:01.977Z,99.36
2022-12-11T02:57:11.574Z,99.37
2022-12-11T03:01:13.758Z,99.30
2022-12-11T03:05:15.853Z,99.45
2022-12-11T03:09:17.792Z,99.38
2022-12-11T03:13:22.353Z,99.54
2022-12-11T03:17:33.728Z,99.45
2022-12-11T03:21:54.213Z,99.36
2022-12-11T03:26:05.938Z,99.27
2022-12-11T03:30:12.431Z,99.46
2022-12-11T03:34:28.550Z,99.46
2022-12-11T03:38:56.771Z,99.39
2022-12-11T03:43:00.311Z,99.35
2022-12-11T03:47:06.569Z,99.42
2022-12-11T03:51:09.219Z,99.49
2022-12-11T03:55:14.756Z,99.52
2022-12-11T03:59:16.771Z,99.50
2022-12-11T04:03:19.184Z,99.52
2022-12-11T04:07:21.339Z,99.49
2022-12-11T04:11:35.430Z,99.48
2022-12-11T04:15:39.415Z,99.37
2022-12-11T04:20:00.069Z,99.49
2022-12-11T04:24:17.288Z,99.47
2022-12-11T04:28:19.273Z,99.47
2022-12-11T04:32:21.197Z,99.41
2022-12-11T04:36:23.253Z,99.51
2022-12-11T04:40:25.234Z,99.49
2022-12-11T04:44:27.122Z,99.39
2022-12-11T04:48:29.495Z,99.39
2022-12-11T04:52:31.524Z,99.43
2022-12-11T04:56:33.507Z,99.45
2022-12-11T05:00:35.442Z,99.50
2022-12-11T05:04:37.387Z,99.57
2022-12-11T05:08:41.461Z,99.70
2022-12-11T05:12:43.383Z,99.59
2022-12-11T05:16:45.490Z,99.57
2022-12-11T05:20:58.983Z,99.57
2022-12-11T05:25:00.974Z,99.51
2022-12-11T05:29:03.011Z,99.55
2022-12-11T05:33:04.904Z,99.46
2022-12-11T05:37:07.278Z,99.44
2022-12-11T05:41:13.537Z,99.54
2022-12-11T05:45:15.459Z,99.48
2022-12-11T05:49:19.848Z,99.42
2022-12-11T05:53:22.222Z,99.43
2022-12-11T05:57:24.153Z,99.49
2022-12-11T06:01:29.373Z,99.38
2022-12-11T06:05:31.269Z,99.35
2022-12-11T06:09:33.253Z,99.35
2022-12-11T06:13:35.579Z,99.27
2022-12-11T06:17:37.513Z,99.30
2022-12-11T06:21:39.443Z,99.22
2022-12-11T06:25:41.388Z,99.19
2022-12-11T06:29:43.351Z,99.10
2022-12-11T06:33:45.483Z,99.10
2022-12-11T06:37:47.339Z,98.89
2022-12-11T06:41:49.286Z,99.01
2022-12-11T06:45:51.598Z,98.87
2022-12-11T06:49:54.039Z,98.87
2022-12-11T06:53:56.944Z,98.88
2022-12-11T06:57:58.863Z,98.74
2022-12-11T07:02:00.822Z,98.72
2022-12-11T07:06:03.088Z,98.91
2022-12-11T07:10:08.297Z,98.90
2022-12-11T07:14:10.792Z,98.79
2022-12-11T07:18:12.735Z,98.82
2022-12-11T07:22:14.814Z,98.79
2022-12-11T07:26:19.871Z,98.76
2022-12-11T07:30:21.915Z,98.81
2022-12-11T07:34:23.932Z,98.80
2022-12-11T07:38:26.017Z,98.83
2022-12-11T07:42:28.357Z,98.68
2022-12-11T07:46:33.122Z,98.79
2022-12-11T07:50:39.575Z,98.91
2022-12-11T07:54:42.283Z,98.71
2022-12-11T07:58:44.745Z,98.82
2022-12-11T08:02:46.803Z,98.80
2022-12-11T08:06:49.438Z,98.77
2022-12-11T08:10:51.814Z,98.63
2022-12-11T08:14:53.898Z,98.58
2022-12-11T08:18:56.005Z,98.51
2022-12-11T08:22:59.383Z,98.46
2022-12-11T08:27:01.629Z,98.41
2022-12-11T08:31:06.285Z,98.38
2022-12-11T08:35:09.306Z,98.43
2022-12-11T08:39:11.601Z,98.49
2022-12-11T08:43:13.785Z,98.25
2022-12-11T08:47:16.959Z,98.29
2022-12-11T08:51:22.926Z,98.33
2022-12-11T08:55:25.032Z,98.30
2022-12-11T08:59:27.084Z,98.27
2022-12-11T09:03:29.110Z,98.20
2022-12-11T09:07:31.146Z,98.16
2022-12-11T09:11:35.826Z,98.08
2022-12-11T09:15:40.784Z,97.98
2022-12-11T09:19:42.787Z,98.04
2022-12-11T09:23:45.363Z,98.09
2022-12-11T09:27:47.270Z,98.01
2022-12-11T09:31:49.270Z,97.92
2022-12-11T09:36:02.343Z,97.99
2022-12-11T09:40:07.802Z,97.92
2022-12-11T09:44:30.032Z,97.65
2022-12-11T09:48:34.782Z,97.72
2022-12-11T09:52:58.848Z,97.44
2022-12-11T09:57:24.399Z,97.59
2022-12-11T10:01:45.219Z,97.66
2022-12-11T10:05:51.666Z,97.49
2022-12-11T10:10:20.835Z,97.31
2022-12-11T10:14:43.963Z,97.37
2022-12-11T10:18:48.239Z,97.48
2022-12-11T10:22:53.567Z,97.37
2022-12-11T10:26:59.355Z,97.15
2022-12-11T10:31:16.702Z,97.34
2022-12-11T10:35:24.530Z,97.23
2022-12-11T10:39:27.716Z,97.21
2022-12-11T10:43:39.274Z,97.27
2022-12-11T10:47:41.299Z,97.11
2022-12-11T10:51:43.879Z,97.15
2022-12-11T10:55:48.082Z,97.02
2022-12-11T10:59:50.302Z,96.90
2022-12-11T11:04:31.227Z,97.01
2022-12-11T11:08:40.297Z,97.20
2022-12-11T11:12:49.944Z,97.13
2022-12-11T11:16:55.846Z,97.31
2022-12-11T11:20:58.303Z,97.53
2022-12-11T11:25:00.940Z,97.75
2022-12-11T11:29:03.505Z,97.65
2022-12-11T11:33:15.354Z,97.34
2022-12-11T11:37:31.365Z,97.38
2022-12-11T11:41:45.913Z,97.23
2022-12-11T11:45:59.587Z,97.31
2022-12-11T11:50:32.429Z,97.32
2022-12-11T11:54:39.458Z,96.81
2022-12-11T11:58:43.560Z,96.91
2022-12-11T12:02:48.542Z,96.87
2022-12-11T12:06:56.691Z,96.67
2022-12-11T12:11:30.393Z,96.57
2022-12-11T12:15:54.449Z,96.82
2022-12-11T12:20:10.726Z,96.90
2022-12-11T12:25:11.292Z,96.75
2022-12-11T12:29:25.558Z,96.66
2022-12-11T12:33:53.496Z,96.67
2022-12-11T12:38:21.304Z,96.65
2022-12-11T12:42:28.990Z,96.60
2022-12-11T12:46:33.819Z,96.56
2022-12-11T12:50:43.373Z,96.65
2022-12-11T12:55:08.339Z,96.54
2022-12-11T12:59:20.530Z,96.52
2022-12-11T13:03:29.897Z,96.81
2022-12-11T13:07:32.377Z,96.88
2022-12-11T13:11:35.878Z,97.05
2022-12-11T13:15:42.506Z,97.17
2022-12-11T13:19:44.555Z,97.18
2022-12-11T13:23:46.778Z,96.96
2022-12-11T13:27:50.243Z,96.76
2022-12-11T13:31:58.659Z,96.58
2022-12-11T13:36:15.103Z,96.54
2022-12-11T13:40:24.098Z,96.62
2022-12-11T13:44:30.181Z,96.57
2022-12-11T13:48:34.511Z,96.78
2022-12-11T13:52:36.403Z,96.83
2022-12-11T13:56:38.322Z,96.77
2022-12-11T14:00:40.368Z,96.78
2022-12-11T14:04:42.640Z,96.59
2022-12-11T14:08:47.485Z,96.62
2022-12-11T14:12:55.407Z,96.67
2022-12-11T14:16:58.021Z,96.77
2022-12-11T14:21:04.157Z,96.96
2022-12-11T14:25:26.722Z,97.00
2022-12-11T14:29:30.320Z,97.09
2022-12-11T14:33:36.734Z,97.35
2022-12-11T14:37:39.439Z,97.16
2022-12-11T14:41:48.873Z,97.17
2022-12-11T14:45:56.633Z,97.30
2022-12-11T14:50:11.616Z,97.21
2022-12-11T14:54:47.686Z,97.34
2022-12-11T14:58:55.332Z,97.34
2022-12-11T15:02:59.916Z,97.22
2022-12-11T15:07:01.902Z,97.18
2022-12-11T15:11:11.036Z,97.22
2022-12-11T15:15:16.521Z,97.49
2022-12-11T15:19:32.604Z,97.51
2022-12-11T15:23:56.307Z,97.65
2022-12-11T15:28:00.956Z,97.55
2022-12-11T15:32:09.055Z,97.67
2022-12-11T15:36:29.949Z,97.59
2022-12-11T15:40:32.571Z,97.53
2022-12-11T15:44:34.633Z,97.38
2022-12-11T15:48:36.668Z,97.48
2022-12-11T15:52:38.683Z,97.47
2022-12-11T15:56:41.018Z,97.51
2022-12-11T16:00:42.945Z,97.33
2022-12-11T16:04:45.022Z,97.29
2022-12-11T16:08:46.964Z,97.31
2022-12-11T16:12:48.922Z,97.30
2022-12-11T16:16:51.017Z,97.37
2022-12-11T16:20:52.987Z,97.30
2022-12-11T16:24:55.383Z,97.34
2022-12-11T16:28:57.555Z,97.25
2022-12-11T16:32:59.547Z,97.34
2022-12-11T16:37:01.763Z,97.28
2022-12-11T16:41:04.349Z,97.16
2022-12-11T16:45:13.744Z,97.15
2022-12-11T16:49:16.130Z,97.02
2022-12-11T16:53:18.694Z,97.09
2022-12-11T16:57:21.180Z,97.06
2022-12-11T17:01:23.237Z,97.10
2022-12-11T17:05:25.535Z,97.00
2022-12-11T17:09:27.615Z,97.03
2022-12-11T17:13:34.414Z,97.12
2022-12-11T17:17:38.023Z,97.07
2022-12-11T17:21:40.222Z,97.08
2022-12-11T17:25:44.302Z,97.22
2022-12-11T17:29:49.010Z,97.01
2022-12-11T17:33:53.518Z,97.10
2022-12-11T17:37:56.557Z,97.14
2022-12-11T17:41:58.679Z,97.14
2022-12-11T17:46:00.711Z,97.10
2022-12-11T17:50:03.522Z,97.05
2022-12-11T17:54:05.707Z,97.04
2022-12-11T17:58:09.322Z,97.07
2022-12-11T18:02:11.408Z,97.05
2022-12-11T18:06:15.230Z,97.18
2022-12-11T18:10:17.630Z,97.33
2022-12-11T18:14:19.795Z,97.30
2022-12-11T18:18:21.948Z,97.28
2022-12-11T18:22:24.963Z,97.17
2022-12-11T18:26:28.452Z,97.24
2022-12-11T18:30:30.685Z,97.21
2022-12-11T18:34:33.026Z,97.35
2022-12-11T18:38:35.445Z,97.47
2022-12-11T18:42:37.883Z,97.34
2022-12-11T18:46:39.991Z,97.34
2022-12-11T18:50:46.543Z,97.40
2022-12-11T18:54:49.988Z,97.50
2022-12-11T18:58:52.064Z,97.39
2022-12-11T19:02:54.057Z,97.41
2022-12-11T19:06:56.683Z,97.51
2022-12-11T19:10:58.677Z,97.56
2022-12-11T19:15:00.863Z,97.54
2022-12-11T19:19:09.457Z,97.51
2022-12-11T19:23:11.413Z,97.48
2022-12-11T19:27:13.969Z,97.55
2022-12-11T19:31:19.770Z,97.40
2022-12-11T19:35:21.914Z,97.46
2022-12-11T19:39:23.896Z,97.54
2022-12-11T19:43:26.426Z,97.49
2022-12-11T19:47:28.357Z,97.47
2022-12-11T19:51:38.694Z,97.40
2022-12-11T19:55:41.695Z,97.12
2022-12-11T19:59:43.622Z,97.07
2022-12-11T20:03:46.022Z,97.26
2022-12-11T20:07:48.402Z,97.22
2022-12-11T20:11:50.435Z,97.19
2022-12-11T20:15:53.242Z,97.25
2022-12-11T20:19:55.279Z,97.28
2022-12-11T20:23:57.365Z,97.33
2022-12-11T20:27:59.390Z,97.26
2022-12-11T20:32:02.821Z,97.26
2022-12-11T20:36:10.102Z,97.19
2022-12-11T20:40:12.730Z,96.99
2022-12-11T20:44:14.664Z,97.17
2022-12-11T20:48:17.128Z,97.08
2022-12-11T20:52:19.679Z,97.11
2022-12-11T20:56:21.711Z,96.87
2022-12-11T21:00:24.167Z,96.97
2022-12-11T21:04:26.967Z,96.97
2022-12-11T21:08:28.940Z,97.12
2022-12-11T21:12:31.841Z,97.11
2022-12-11T21:16:36.291Z,97.09
2022-12-11T21:20:38.265Z,97.17
2022-12-11T21:24:41.125Z,96.96
2022-12-11T21:28:43.385Z,97.20
2022-12-11T21:32:45.634Z,97.08
2022-12-11T21:36:48.088Z,96.94
2022-12-11T21:40:50.874Z,96.95
2022-12-11T21:49:15.674Z,96.95
2022-12-11T21:53:17.652Z,96.95
2022-12-11T21:57:25.887Z,97.01
2022-12-11T22:01:30.854Z,97.05
2022-12-11T22:05:32.873Z,97.41
2022-12-11T22:09:34.815Z,97.46
2022-12-11T22:13:36.992Z,97.37
2022-12-11T22:17:38.970Z,97.40
2022-12-11T22:21:41.001Z,97.38
2022-12-11T22:25:42.937Z,97.20
2022-12-11T22:29:44.891Z,97.12
2022-12-11T22:33:49.544Z,97.02
2022-12-11T22:37:51.779Z,97.18
2022-12-11T22:41:53.800Z,96.96
2022-12-11T22:45:55.823Z,97.14
2022-12-11T22:49:57.714Z,96.96
2022-12-11T22:53:59.815Z,97.06
2022-12-11T22:58:01.697Z,96.96
2022-12-11T23:02:03.781Z,96.81
2022-12-11T23:06:08.394Z,96.69
2022-12-11T23:10:10.515Z,96.80
2022-12-11T23:14:17.758Z,96.80
2022-12-11T23:18:19.840Z,96.86
2022-12-11T23:22:21.808Z,97.03
2022-12-11T23:26:24.363Z,97.01
2022-12-11T23:30:26.409Z,96.80
2022-12-11T23:34:28.342Z,96.95
2022-12-11T23:38:30.788Z,97.22
2022-12-11T23:42:33.535Z,97.26
2022-12-11T23:46:36.032Z,97.13
2022-12-11T23:50:39.214Z,97.07
2022-12-11T23:54:41.107Z,96.86
2022-12-11T23:58:43.172Z,96.76
